Language selection

My Weather Profile Weather Topics  | 

Atlantic - Newfoundland: Past 24 Hour Conditions

 

Cartwright Airport

08:00 AM ADT 22 September 2021
Disclaimer

This table is a summary of hourly weather conditions for the past 24 hours.
Please note that these observations might not always be representative of weather conditions over their associated marine area.

Date / Time
(ADT)
Wind(knots) Conditions Visibility(km) Pressure(kPa) Air tempC) Relative humidity(%) Dew pointC) Humidex
22 September 2021
8:00 SSW 14 gust 25 Mostly Cloudy 16 101.0 16 65 9 *
7:00 SSW 16 gust 25 Mainly Sunny 16 101.0 16 65 9 *
6:00 S 12 gust 18 Cloudy 16 101.1 16 60 9 *
5:00 SSW 13 gust 22 Cloudy 16 101.0 17 55 8 *
4:00 SSW 13 gust 24 Mostly Cloudy 16 101.0 17 51 7 *
3:00 SSW 14 gust 24 Mainly Clear 16 101.0 18 50 7 *
2:00 SSW 14 gust 25 Partly Cloudy 16 101.1 19 46 7 *
1:00 SSW 14 gust 22 Mostly Cloudy 16 101.1 19 46 7 *
0:00 S 8 gust 16 Cloudy 16 101.1 20 45 8 *
21 September 2021
23:00 S 11 gust 21 Mainly Clear 16 101.1 20 47 9 21
22:00 S 8 gust 19 Partly Cloudy 16 101.2 21 47 9 22
21:00 SSW 15 gust 26 Clear 16 101.2 22 45 10 23
20:00 SSW 9 gust 16 Clear 16 101.2 22 47 10 23
19:00 SW 15 gust 24 Clear 16 101.1 24 35 8 *
18:00 SW 17 gust 27 Sunny 16 101.1 25 33 8 *
17:00 SW 16 gust 28 Sunny 16 101.1 26 33 9 27
16:00 SW 16 gust 26 Sunny 16 101.1 26 37 11 28
15:00 SW 15 gust 29 Sunny 16 101.2 26 39 11 27
14:00 SW 20 gust 33 Sunny 16 101.2 24 45 11 26
13:00 SSW 15 gust 25 Sunny 16 101.3 23 47 11 25
12:00 SSW 16 gust 29 Sunny 16 101.4 21 53 11 22
11:00 SW 15 gust 28 Sunny 16 101.4 18 59 10 *
10:00 SSW 14 gust 23 Sunny 16 101.5 16 62 9 *
9:00 S 10 gust 20 Sunny 16 101.5 14 66 8 *
8:00 SSW 12 gust 22 Sunny 16 101.5 13 67 7 *

Zoom-in to make a selection

Map of Atlantic - Newfoundland marine weather areas Banquereau - 44139 East Chedabucto Bay - 44488 West Chedabucto Bay - 44489 Blanc-Sablon Airport Cap Whittle Chevery Natashquan Airport Heath Point Îles de la Madeleine Airport Miscou Island Eskasoni (First Nations) Grand Étang Ingonish Beach North Mountain St.Paul Island J.A. Douglas McCurdy Sydney Airport Charlottetown Airport East Point North Cape Argentia Bonavista Burgeo Cape Race Corner Brook Daniel's Harbour Englee Ferolle Point La Scie Port aux Basques Rocky Harbour Sagona Island St. Anthony Airport St. John's Int'l Airport St. Lawrence Stephenville Airport Twillingate Winterland Branch Hill Wreckhouse Grates Cove Pool's Island Marticot Island Long Pond Cartwright Airport Mary's Harbour
Legend:
buoy Buoy
land station Land Station

Atlantic - Newfoundland Area

Another Region

What we are doing

Date modified: